Wilmington Island, Georgia
Current Conditions -  °F | °C
As of 4:58 AM on Sunday 26 Oct 2014 (Local Time) from KSVN Reporting Station
Clear Clear  
Wind Chill: 51°   Ceiling: Unl
Heat Index: 51°   Visibility: 10mi
Dew Point: 50°   Wind: 5mph
Humidity: 96%   Direction: 290°WNW
Pressure: 29.92"   Gusts: NA
Location:  31.996°N, 80.9671°W
Report Text: KSVN 260858Z AUTO 29004KT 10SM CLR 11/10 A2992 RMK AO2 SLP135 T01080102 56009
Loading
Personal Weather Stations






























Interactive Weather Map
Tropical Storm Tracking
New forecast layout! Learn more

10-Day Weather Forecast

Advertisements
Track Severe Weather on mobile